Time;durP1;ratioP1;P1;durP2;ratioP2;P2;SDS_P1;SDS_P2;PMS_P1;PMS_P2;Temp;Humidity;BMP_temperature;BMP_pressure;BME280_temperature;BME280_humidity;BME280_pressure;Samples;Min_cycle;Max_cycle;Signal;HPM_P1;HPM_P2
2023/11/12 06:02:18;;;;;;;;;;;;;;;;;;5127169;23;19977;-44
2023/11/12 06:04:44;;;;;;;;;;;;;;;;;;4951053;29;19914;-43
2023/11/12 06:07:10;;;;;;;;;;;;;;;;;;4950784;29;19921;-45
2023/11/12 06:09:36;;;;;;;;;;;;;;;;;;4950995;29;19986;-46
2023/11/12 06:12:04;;;;;;;;;;;;;;;;;;4950990;29;19965;-44
2023/11/12 06:14:30;;;;;;;;;;;;;;;;;;4950716;29;19911;-45
2023/11/12 06:16:56;;;;;;;;;;;;;;;;;;4950622;29;19910;-43
2023/11/12 06:19:22;;;;;;;;;;;;;;;;;;4951119;29;19965;-45
2023/11/12 06:21:48;;;;;;;;;;;;;;;;;;4951409;29;19961;-45
2023/11/12 06:24:14;;;;;;;;;;;;;;;;;;4950785;28;19936;-44
2023/11/12 06:26:40;;;;;;;;;;;;;;;;;;4954307;29;19914;-45
2023/11/12 06:29:06;;;;;;;;;;;;;;;;;;4954525;29;20421;-45
2023/11/12 06:31:32;;;;;;;;;;;;;;;;;;4954839;29;19911;-47
2023/11/12 06:33:58;;;;;;;;;;;;;;;;;;4954326;29;20004;-44
2023/11/12 06:36:24;;;;;;;;;;;;;;;;;;4954270;29;19918;-44
2023/11/12 06:38:50;;;;;;;;;;;;;;;;;;4954699;29;19965;-45
2023/11/12 06:41:16;;;;;;;;;;;;;;;;;;4954266;29;19910;-44
2023/11/12 06:43:42;;;;;;;;;;;;;;;;;;4954177;29;19915;-43
2023/11/12 06:46:10;;;;;;;;;;;;;;;;;;4954680;29;20005;-47
2023/11/12 06:48:36;;;;;;;;;;;;;;;;;;4953179;29;20288;-44
2023/11/12 06:51:02;;;;;;;;;;;;;;;;;;4955781;29;19991;-45
2023/11/12 06:53:28;;;;;;;;;;;;;;;;;;4955527;28;19914;-42
2023/11/12 06:55:54;;;;;;;;;;;;;;;;;;4949171;29;19911;-45
2023/11/12 06:58:20;;;;;;;;;;;;;;;;;;4951474;29;19938;-47
2023/11/12 07:00:46;;;;;;;;;;;;;;;;;;4953266;29;20037;-44
2023/11/12 07:03:11;;;;;;;;;;;;;;;;;;4953579;29;19917;-46
2023/11/12 07:05:37;;;;;;;;;;;;;;;;;;4953739;29;20411;-43
2023/11/12 07:08:04;;;;;;;;;;;;;;;;;;4953864;29;19993;-46
2023/11/12 07:10:30;;;;;;;;;;;;;;;;;;4953564;29;19919;-44
2023/11/12 07:12:57;;;;;;;;;;;;;;;;;;4953627;29;20088;-47
2023/11/12 07:15:23;;;;;;;;;;;;;;;;;;4953916;29;19918;-45
2023/11/12 07:17:49;;;;;;;;;;;;;;;;;;4952569;29;19911;-43
2023/11/12 07:20:15;;;;;;;;;;;;;;;;;;4950989;28;19921;-44
2023/11/12 07:22:42;;;;;;;;;;;;;;;;;;4951018;28;19910;-44
2023/11/12 07:25:09;;;;;;;;;;;;;;;;;;4951680;29;19975;-45
2023/11/12 07:27:35;;;;;;;;;;;;;;;;;;4952085;29;20383;-43
2023/11/12 07:30:01;;;;;;;;;;;;;;;;;;4952199;29;19941;-43
2023/11/12 07:32:27;;;;;;;;;;;;;;;;;;4951283;29;19934;-45
2023/11/12 07:34:52;;;;;;;;;;;;;;;;;;4951733;29;19910;-43
2023/11/12 07:37:19;;;;;;;;;;;;;;;;;;4955410;28;20431;-43
2023/11/12 07:39:45;;;;;;;;;;;;;;;;;;4960824;28;19918;-44
2023/11/12 07:42:11;;;;;;;;;;;;;;;;;;4967151;28;19918;-43
2023/11/12 07:44:37;;;;;;;;;;;;;;;;;;4952279;28;19934;-46
2023/11/12 07:47:06;;;;;;;;;;;;;;;;;;4952563;29;19977;-43
2023/11/12 07:49:31;;;;;;;;;;;;;;;;;;4952801;29;19914;-46
2023/11/12 07:51:57;;;;;;;;;;;;;;;;;;4952106;29;19919;-45
2023/11/12 07:54:23;;;;;;;;;;;;;;;;;;4951880;29;19950;-46
2023/11/12 07:56:49;;;;;;;;;;;;;;;;;;4951681;29;19910;-47
2023/11/12 07:59:15;;;;;;;;;;;;;;;;;;4951463;29;19914;-44
2023/11/12 08:01:41;;;;;;;;;;;;;;;;;;4962341;28;19928;-45
2023/11/12 08:04:08;;;;;;;;;;;;;;;;;;4970839;28;19917;-43
2023/11/12 08:06:34;;;;;;;;;;;;;;;;;;4953837;28;19946;-44
2023/11/12 08:09:00;;;;;;;;;;;;;;;;;;4951541;29;19914;-44
2023/11/12 08:11:26;;;;;;;;;;;;;;;;;;4951739;29;19914;-45
2023/11/12 08:13:52;;;;;;;;;;;;;;;;;;4951740;29;19918;-44
2023/11/12 08:16:18;;;;;;;;;;;;;;;;;;4951372;29;20018;-45
2023/11/12 08:18:44;;;;;;;;;;;;;;;;;;4950913;28;20592;-45
2023/11/12 08:21:10;;;;;;;;;;;;;;;;;;4951007;29;20013;-48
2023/11/12 08:23:36;;;;;;;;;;;;;;;;;;4951808;29;19977;-45
2023/11/12 08:26:02;;;;;;;;;;;;;;;;;;4951385;29;19922;-44
2023/11/12 08:28:28;;;;;;;;;;;;;;;;;;4950454;28;19945;-45
2023/11/12 08:30:54;;;;;;;;;;;;;;;;;;4949206;28;19945;-44
2023/11/12 08:33:19;;;;;;;;;;;;;;;;;;4950333;28;19922;-43
2023/11/12 08:35:45;;;;;;;;;;;;;;;;;;4951338;29;19918;-46
2023/11/12 08:38:11;;;;;;;;;;;;;;;;;;4951072;29;19910;-43
2023/11/12 08:40:41;;;;;;;;;;;;;;;;;;4951791;29;19915;-45
2023/11/12 08:43:07;;;;;;;;;;;;;;;;;;4951432;29;20058;-44
2023/11/12 08:45:33;;;;;;;;;;;;;;;;;;4951161;29;20001;-45
2023/11/12 08:47:59;;;;;;;;;;;;;;;;;;4949838;28;19974;-46
2023/11/12 08:50:25;;;;;;;;;;;;;;;;;;4950939;29;19915;-46
2023/11/12 08:52:52;;;;;;;;;;;;;;;;;;4950403;29;19910;-46
2023/11/12 08:55:19;;;;;;;;;;;;;;;;;;4950910;29;19945;-43
2023/11/12 08:57:44;;;;;;;;;;;;;;;;;;4950478;29;19910;-44
2023/11/12 09:00:11;;;;;;;;;;;;;;;;;;4950735;29;19911;-44
2023/11/12 09:02:37;;;;;;;;;;;;;;;;;;4950765;28;19974;-47
2023/11/12 09:05:04;;;;;;;;;;;;;;;;;;4950674;29;19910;-45
2023/11/12 09:07:30;;;;;;;;;;;;;;;;;;4945341;29;20009;-45
2023/11/12 09:09:56;;;;;;;;;;;;;;;;;;4951601;28;19918;-44
2023/11/12 09:12:22;;;;;;;;;;;;;;;;;;4949805;28;19921;-46
2023/11/12 09:14:49;;;;;;;;;;;;;;;;;;4951443;29;19966;-45
2023/11/12 09:17:15;;;;;;;;;;;;;;;;;;4947370;28;19915;-47
2023/11/12 09:19:41;;;;;;;;;;;;;;;;;;4950593;29;19915;-45
2023/11/12 09:22:09;;;;;;;;;;;;;;;;;;4955183;28;19914;-43
2023/11/12 09:24:35;;;;;;;;;;;;;;;;;;4949144;28;19915;-46
2023/11/12 09:27:01;;;;;;;;;;;;;;;;;;4949717;28;19923;-43
2023/11/12 09:29:28;;;;;;;;;;;;;;;;;;4951108;29;19914;-42
2023/11/12 09:31:54;;;;;;;;;;;;;;;;;;4950827;29;19965;-44
2023/11/12 09:34:20;;;;;;;;;;;;;;;;;;4950039;29;19954;-45
2023/11/12 09:36:46;;;;;;;;;;;;;;;;;;4951299;29;19961;-44
2023/11/12 09:39:16;;;;;;;;;;;;;;;;;;4949235;28;19942;-46
2023/11/12 09:41:42;;;;;;;;;;;;;;;;;;4952667;28;19914;-46
2023/11/12 09:44:09;;;;;;;;;;;;;;;;;;4951544;29;20398;-47
2023/11/12 09:46:35;;;;;;;;;;;;;;;;;;4951556;29;19914;-48
2023/11/12 09:49:02;;;;;;;;;;;;;;;;;;4951479;29;20289;-49
2023/11/12 09:51:28;;;;;;;;;;;;;;;;;;4951570;29;19911;-49
2023/11/12 09:53:54;;;;;;;;;;;;;;;;;;4950945;28;20348;-47
2023/11/12 09:56:22;;;;;;;;;;;;;;;;;;4951724;29;20314;-46
2023/11/12 09:58:49;;;;;;;;;;;;;;;;;;4958854;28;19969;-50
2023/11/12 10:01:15;;;;;;;;;;;;;;;;;;4963140;28;20476;-44
2023/11/12 10:03:42;;;;;;;;;;;;;;;;;;4969221;28;20001;-46
2023/11/12 10:06:11;;;;;;;;;;;;;;;;;;4955261;28;19962;-44
2023/11/12 10:08:37;;;;;;;;;;;;;;;;;;4954956;29;19911;-45
2023/11/12 10:11:04;;;;;;;;;;;;;;;;;;4953684;29;19915;-44
2023/11/12 10:13:30;;;;;;;;;;;;;;;;;;4954611;29;19998;-45
2023/11/12 10:15:56;;;;;;;;;;;;;;;;;;4960527;28;19941;-45
2023/11/12 10:18:21;;;;;;;;;;;;;;;;;;4963346;28;19915;-48
2023/11/12 10:20:49;;;;;;;;;;;;;;;;;;4954744;29;20307;-43
2023/11/12 10:23:15;;;;;;;;;;;;;;;;;;4954325;29;19941;-44
2023/11/12 10:25:41;;;;;;;;;;;;;;;;;;4954780;29;19915;-44
2023/11/12 10:28:10;;;;;;;;;;;;;;;;;;4955016;29;19910;-45
2023/11/12 10:30:37;;;;;;;;;;;;;;;;;;4954921;29;19953;-49
2023/11/12 10:33:03;;;;;;;;;;;;;;;;;;4954677;29;19960;-49
2023/11/12 10:35:30;;;;;;;;;;;;;;;;;;4954581;29;19918;-47
2023/11/12 10:37:56;;;;;;;;;;;;;;;;;;4954572;29;20421;-49
2023/11/12 10:40:22;;;;;;;;;;;;;;;;;;4954244;29;19914;-50
2023/11/12 10:42:50;;;;;;;;;;;;;;;;;;4953698;29;20413;-48
2023/11/12 10:45:16;;;;;;;;;;;;;;;;;;4954340;29;19915;-50
2023/11/12 10:47:42;;;;;;;;;;;;;;;;;;4954323;29;19922;-47
2023/11/12 10:50:08;;;;;;;;;;;;;;;;;;4954148;29;19915;-49
2023/11/12 10:52:34;;;;;;;;;;;;;;;;;;4959947;28;20319;-50
2023/11/12 10:55:00;;;;;;;;;;;;;;;;;;4954332;29;19918;-49
2023/11/12 10:57:26;;;;;;;;;;;;;;;;;;4954319;29;20491;-46
2023/11/12 10:59:52;;;;;;;;;;;;;;;;;;4954185;29;20009;-50
2023/11/12 11:02:18;;;;;;;;;;;;;;;;;;4954478;29;19919;-46
2023/11/12 11:04:45;;;;;;;;;;;;;;;;;;4953797;29;20021;-50
2023/11/12 11:07:11;;;;;;;;;;;;;;;;;;4954604;29;20356;-46
2023/11/12 11:09:37;;;;;;;;;;;;;;;;;;4953704;29;19942;-49
2023/11/12 11:12:03;;;;;;;;;;;;;;;;;;4953743;28;19945;-47
2023/11/12 11:14:29;;;;;;;;;;;;;;;;;;4950715;28;19923;-45
2023/11/12 11:16:55;;;;;;;;;;;;;;;;;;4951968;28;20336;-47
2023/11/12 11:19:22;;;;;;;;;;;;;;;;;;4952186;29;19918;-48
2023/11/12 11:21:48;;;;;;;;;;;;;;;;;;4949397;29;19921;-48
2023/11/12 11:24:14;;;;;;;;;;;;;;;;;;4952537;29;19997;-48
2023/11/12 11:26:40;;;;;;;;;;;;;;;;;;4952850;28;19911;-46
2023/11/12 11:29:13;;;;;;;;;;;;;;;;;;4951906;28;19914;-50
2023/11/12 11:31:40;;;;;;;;;;;;;;;;;;4952689;29;19918;-49
2023/11/12 11:34:05;;;;;;;;;;;;;;;;;;4951108;28;19997;-51
2023/11/12 11:36:31;;;;;;;;;;;;;;;;;;4953150;28;20029;-46
2023/11/12 11:38:57;;;;;;;;;;;;;;;;;;4953727;29;19917;-47
2023/11/12 11:41:23;;;;;;;;;;;;;;;;;;4968061;28;20407;-46
2023/11/12 11:43:49;;;;;;;;;;;;;;;;;;4953442;29;19911;-48
2023/11/12 11:46:17;;;;;;;;;;;;;;;;;;4945910;29;19926;-46
2023/11/12 11:48:43;;;;;;;;;;;;;;;;;;4933966;29;20001;-49
2023/11/12 11:51:09;;;;;;;;;;;;;;;;;;4941860;28;20068;-46
2023/11/12 11:53:35;;;;;;;;;;;;;;;;;;4952314;28;20099;-49
2023/11/12 11:56:01;;;;;;;;;;;;;;;;;;4960560;28;20407;-46
2023/11/12 11:58:26;;;;;;;;;;;;;;;;;;4971795;28;19910;-50
2023/11/12 12:00:52;;;;;;;;;;;;;;;;;;4970959;28;19922;-52
2023/11/12 12:03:20;;;;;;;;;;;;;;;;;;4940827;29;19915;-51
2023/11/12 12:05:46;;;;;;;;;;;;;;;;;;4946296;28;19918;-50
2023/11/12 12:08:13;;;;;;;;;;;;;;;;;;4949891;28;20269;-51
2023/11/12 12:10:39;;;;;;;;;;;;;;;;;;4950984;28;19929;-48
2023/11/12 12:13:05;;;;;;;;;;;;;;;;;;4951198;28;19945;-50
2023/11/12 12:15:33;;;;;;;;;;;;;;;;;;4951397;28;19918;-48
2023/11/12 12:17:59;;;;;;;;;;;;;;;;;;4950476;28;19985;-50
2023/11/12 12:20:25;;;;;;;;;;;;;;;;;;4949494;28;19918;-48
2023/11/12 12:22:51;;;;;;;;;;;;;;;;;;4949226;28;19997;-51
2023/11/12 12:25:17;;;;;;;;;;;;;;;;;;4933367;29;20431;-48
2023/11/12 12:27:43;;;;;;;;;;;;;;;;;;4950810;29;19910;-50
2023/11/12 12:30:09;;;;;;;;;;;;;;;;;;4950397;29;19921;-50
2023/11/12 12:32:35;;;;;;;;;;;;;;;;;;4949254;28;20363;-51
2023/11/12 12:35:01;;;;;;;;;;;;;;;;;;4948597;28;19962;-50
2023/11/12 12:37:30;;;;;;;;;;;;;;;;;;4950071;28;19987;-51
2023/11/12 12:40:00;;;;;;;;;;;;;;;;;;4932071;29;20006;-50
2023/11/12 12:42:27;;;;;;;;;;;;;;;;;;4933315;29;19911;-48
2023/11/12 12:44:53;;;;;;;;;;;;;;;;;;4949834;28;19919;-50
2023/11/12 12:47:19;;;;;;;;;;;;;;;;;;4949298;28;19985;-49
2023/11/12 12:49:46;;;;;;;;;;;;;;;;;;4947745;28;20391;-49
2023/11/12 12:52:15;;;;;;;;;;;;;;;;;;4932245;29;20033;-48
2023/11/12 12:54:41;;;;;;;;;;;;;;;;;;4947897;28;19919;-48
2023/11/12 12:57:07;;;;;;;;;;;;;;;;;;4930819;29;20033;-49
2023/11/12 12:59:35;;;;;;;;;;;;;;;;;;4930390;28;20526;-49
2023/11/12 13:02:00;;;;;;;;;;;;;;;;;;4947103;28;19918;-50
2023/11/12 13:04:27;;;;;;;;;;;;;;;;;;4947545;28;19930;-50
2023/11/12 13:06:53;;;;;;;;;;;;;;;;;;4948351;28;20434;-48
2023/11/12 13:09:26;;;;;;;;;;;;;;;;;;4946768;28;19923;-50
2023/11/12 13:11:52;;;;;;;;;;;;;;;;;;4960107;28;19921;-47
2023/11/12 13:14:19;;;;;;;;;;;;;;;;;;4953395;28;20375;-49
2023/11/12 13:16:45;;;;;;;;;;;;;;;;;;4949613;28;19964;-50
2023/11/12 13:19:14;;;;;;;;;;;;;;;;;;4949501;29;19937;-47
2023/11/12 13:21:40;;;;;;;;;;;;;;;;;;4949477;28;19915;-47
2023/11/12 13:24:09;;;;;;;;;;;;;;;;;;4953806;28;19918;-49
2023/11/12 13:26:35;;;;;;;;;;;;;;;;;;4948658;28;20103;-49
2023/11/12 13:29:03;;;;;;;;;;;;;;;;;;4948896;28;19922;-49
2023/11/12 13:31:31;;;;;;;;;;;;;;;;;;4948026;28;19923;-49
2023/11/12 13:33:56;;;;;;;;;;;;;;;;;;4947030;28;19961;-50
2023/11/12 13:36:24;;;;;;;;;;;;;;;;;;4946790;28;19962;-47
2023/11/12 13:38:52;;;;;;;;;;;;;;;;;;4948062;28;19914;-47
2023/11/12 13:41:18;;;;;;;;;;;;;;;;;;4948398;28;19915;-48
2023/11/12 13:43:44;;;;;;;;;;;;;;;;;;4947278;28;20001;-51
2023/11/12 13:46:09;;;;;;;;;;;;;;;;;;4947844;28;20411;-47
2023/11/12 13:48:35;;;;;;;;;;;;;;;;;;4948152;28;19919;-49
2023/11/12 13:51:05;;;;;;;;;;;;;;;;;;4947922;28;19914;-48
2023/11/12 13:53:33;;;;;;;;;;;;;;;;;;4948238;28;20414;-50
2023/11/12 13:55:58;;;;;;;;;;;;;;;;;;4947064;28;20042;-47
2023/11/12 13:58:24;;;;;;;;;;;;;;;;;;4948150;28;20407;-49
2023/11/12 14:00:51;;;;;;;;;;;;;;;;;;4948805;29;19962;-49
2023/11/12 14:03:17;;;;;;;;;;;;;;;;;;4947984;28;19921;-48
2023/11/12 14:05:44;;;;;;;;;;;;;;;;;;4936852;28;20322;-50
2023/11/12 14:08:09;;;;;;;;;;;;;;;;;;4946526;28;19919;-46
2023/11/12 14:10:35;;;;;;;;;;;;;;;;;;4945440;28;19919;-49
2023/11/12 14:13:02;;;;;;;;;;;;;;;;;;4929994;29;20307;-49
2023/11/12 14:15:33;;;;;;;;;;;;;;;;;;4947210;28;19918;-50
2023/11/12 14:17:59;;;;;;;;;;;;;;;;;;4947355;28;19925;-49
2023/11/12 14:20:25;;;;;;;;;;;;;;;;;;4946102;28;19941;-48
2023/11/12 14:22:51;;;;;;;;;;;;;;;;;;4929132;29;19921;-47
2023/11/12 14:25:21;;;;;;;;;;;;;;;;;;4946981;28;19914;-47
2023/11/12 14:27:49;;;;;;;;;;;;;;;;;;4944393;28;19915;-49
2023/11/12 14:30:17;;;;;;;;;;;;;;;;;;4929093;28;20473;-50
2023/11/12 14:32:43;;;;;;;;;;;;;;;;;;4946589;28;19915;-47
2023/11/12 14:35:09;;;;;;;;;;;;;;;;;;4943734;28;20483;-49
2023/11/12 14:37:35;;;;;;;;;;;;;;;;;;4943765;28;20331;-47
2023/11/12 14:40:09;;;;;;;;;;;;;;;;;;4931072;28;20017;-48
2023/11/12 14:42:35;;;;;;;;;;;;;;;;;;4929586;28;20311;-48
2023/11/12 14:45:01;;;;;;;;;;;;;;;;;;4946078;28;19921;-46
2023/11/12 14:47:27;;;;;;;;;;;;;;;;;;4949879;28;19914;-49
2023/11/12 14:49:53;;;;;;;;;;;;;;;;;;4948058;28;19918;-46
2023/11/12 14:52:19;;;;;;;;;;;;;;;;;;4948366;28;19922;-47
2023/11/12 14:54:44;;;;;;;;;;;;;;;;;;4949285;28;20009;-46
2023/11/12 14:57:11;;;;;;;;;;;;;;;;;;4950107;28;19921;-47
2023/11/12 14:59:39;;;;;;;;;;;;;;;;;;4952958;28;20270;-51
2023/11/12 15:02:05;;;;;;;;;;;;;;;;;;4954428;28;19922;-49
2023/11/12 15:04:31;;;;;;;;;;;;;;;;;;4955483;28;19970;-50
2023/11/12 15:06:57;;;;;;;;;;;;;;;;;;4954434;29;19910;-51
2023/11/12 15:09:23;;;;;;;;;;;;;;;;;;4952946;28;20017;-48
2023/11/12 15:11:49;;;;;;;;;;;;;;;;;;4953506;29;19914;-48
2023/11/12 15:14:15;;;;;;;;;;;;;;;;;;4966203;28;19921;-48
2023/11/12 15:16:41;;;;;;;;;;;;;;;;;;4972635;28;19917;-48
2023/11/12 15:19:10;;;;;;;;;;;;;;;;;;4957449;28;19911;-50
2023/11/12 15:21:36;;;;;;;;;;;;;;;;;;4952814;29;19922;-50
2023/11/12 15:24:06;;;;;;;;;;;;;;;;;;4953162;29;19907;-50
2023/11/12 15:26:31;;;;;;;;;;;;;;;;;;4952306;28;20011;-49
2023/11/12 15:28:57;;;;;;;;;;;;;;;;;;4952799;28;19935;-49
2023/11/12 15:31:23;;;;;;;;;;;;;;;;;;4953042;29;19910;-51
2023/11/12 15:33:49;;;;;;;;;;;;;;;;;;4952964;29;19918;-51
2023/11/12 15:36:15;;;;;;;;;;;;;;;;;;4953242;28;19958;-49
2023/11/12 15:38:41;;;;;;;;;;;;;;;;;;4930279;28;19950;-50
2023/11/12 15:41:07;;;;;;;;;;;;;;;;;;4947526;28;19918;-51
2023/11/12 15:43:33;;;;;;;;;;;;;;;;;;4948790;28;19925;-49
2023/11/12 15:46:00;;;;;;;;;;;;;;;;;;4949343;28;19957;-48
2023/11/12 15:48:26;;;;;;;;;;;;;;;;;;4947912;28;19921;-49
2023/11/12 15:50:52;;;;;;;;;;;;;;;;;;4948864;28;20371;-51
2023/11/12 15:53:20;;;;;;;;;;;;;;;;;;4949521;28;19958;-49
2023/11/12 15:55:46;;;;;;;;;;;;;;;;;;4931540;29;19910;-48
2023/11/12 15:58:12;;;;;;;;;;;;;;;;;;4947433;28;20214;-47
2023/11/12 16:00:38;;;;;;;;;;;;;;;;;;4948429;28;19918;-48
2023/11/12 16:03:05;;;;;;;;;;;;;;;;;;4947409;28;20339;-47
2023/11/12 16:05:32;;;;;;;;;;;;;;;;;;4949650;28;19981;-49
2023/11/12 16:07:58;;;;;;;;;;;;;;;;;;4949426;28;19914;-52
2023/11/12 16:10:24;;;;;;;;;;;;;;;;;;4948870;28;20016;-50
2023/11/12 16:12:50;;;;;;;;;;;;;;;;;;4948090;28;19921;-51
2023/11/12 16:15:15;;;;;;;;;;;;;;;;;;4949775;29;19977;-47
2023/11/12 16:17:45;;;;;;;;;;;;;;;;;;4948156;28;19917;-49
2023/11/12 16:20:11;;;;;;;;;;;;;;;;;;4947322;28;19919;-51
2023/11/12 16:22:37;;;;;;;;;;;;;;;;;;4949001;28;20331;-48
2023/11/12 16:25:07;;;;;;;;;;;;;;;;;;4948864;28;19915;-51
2023/11/12 16:27:34;;;;;;;;;;;;;;;;;;4941307;28;20363;-48
2023/11/12 16:30:01;;;;;;;;;;;;;;;;;;4961405;28;19977;-51
2023/11/12 16:32:27;;;;;;;;;;;;;;;;;;4948330;28;19922;-48
2023/11/12 16:34:53;;;;;;;;;;;;;;;;;;4947577;28;19914;-47
2023/11/12 16:37:19;;;;;;;;;;;;;;;;;;4947811;28;19921;-51
2023/11/12 16:39:45;;;;;;;;;;;;;;;;;;4960874;28;20328;-52
2023/11/12 16:42:12;;;;;;;;;;;;;;;;;;4949380;28;19910;-48
2023/11/12 16:44:39;;;;;;;;;;;;;;;;;;4930599;29;20404;-50
2023/11/12 16:47:07;;;;;;;;;;;;;;;;;;4948729;28;20009;-50
2023/11/12 16:49:32;;;;;;;;;;;;;;;;;;4947022;28;19942;-49
2023/11/12 16:51:58;;;;;;;;;;;;;;;;;;4949842;29;20303;-51
2023/11/12 16:54:24;;;;;;;;;;;;;;;;;;4955752;28;19992;-51
2023/11/12 16:56:51;;;;;;;;;;;;;;;;;;4939585;29;19919;-50
2023/11/12 16:59:17;;;;;;;;;;;;;;;;;;4945394;28;19914;-47
2023/11/12 17:01:46;;;;;;;;;;;;;;;;;;4930126;28;19919;-48
2023/11/12 17:04:12;;;;;;;;;;;;;;;;;;4954315;28;20179;-50
2023/11/12 17:06:38;;;;;;;;;;;;;;;;;;4947822;28;20397;-44
2023/11/12 17:09:03;;;;;;;;;;;;;;;;;;4946690;28;20296;-45
2023/11/12 17:11:30;;;;;;;;;;;;;;;;;;4946907;28;19910;-48
2023/11/12 17:14:00;;;;;;;;;;;;;;;;;;4947933;28;19922;-49
2023/11/12 17:16:26;;;;;;;;;;;;;;;;;;4946716;28;19961;-48
2023/11/12 17:18:51;;;;;;;;;;;;;;;;;;4947325;28;20410;-48
2023/11/12 17:21:18;;;;;;;;;;;;;;;;;;4948912;28;20383;-50
2023/11/12 17:23:46;;;;;;;;;;;;;;;;;;4953474;28;19925;-47
2023/11/12 17:26:12;;;;;;;;;;;;;;;;;;4948256;28;19939;-50
2023/11/12 17:28:38;;;;;;;;;;;;;;;;;;4948145;28;19922;-51
2023/11/12 17:31:04;;;;;;;;;;;;;;;;;;4958501;28;19922;-52
2023/11/12 17:33:32;;;;;;;;;;;;;;;;;;4957348;28;20350;-49
2023/11/12 17:35:58;;;;;;;;;;;;;;;;;;4951464;28;19922;-48
2023/11/12 17:38:27;;;;;;;;;;;;;;;;;;4942489;28;20501;-50
2023/11/12 17:40:53;;;;;;;;;;;;;;;;;;4943020;28;19915;-51
2023/11/12 17:43:19;;;;;;;;;;;;;;;;;;4945505;28;19922;-49
2023/11/12 17:45:44;;;;;;;;;;;;;;;;;;4944962;28;20486;-50
2023/11/12 17:48:11;;;;;;;;;;;;;;;;;;4948625;29;19961;-50
2023/11/12 17:50:37;;;;;;;;;;;;;;;;;;4946017;28;19923;-50
2023/11/12 17:53:03;;;;;;;;;;;;;;;;;;4948844;28;20364;-48
2023/11/12 17:55:29;;;;;;;;;;;;;;;;;;4946329;28;19918;-51
2023/11/12 17:57:56;;;;;;;;;;;;;;;;;;4945158;28;19930;-52
2023/11/12 18:00:22;;;;;;;;;;;;;;;;;;4947000;28;19919;-51
2023/11/12 18:02:48;;;;;;;;;;;;;;;;;;4931137;28;19933;-51
2023/11/12 18:05:14;;;;;;;;;;;;;;;;;;4949315;28;20046;-49
2023/11/12 18:07:41;;;;;;;;;;;;;;;;;;4946963;28;19930;-50
2023/11/12 18:10:10;;;;;;;;;;;;;;;;;;4947616;28;19922;-48
2023/11/12 18:12:36;;;;;;;;;;;;;;;;;;4947858;28;19921;-49
2023/11/12 18:15:02;;;;;;;;;;;;;;;;;;4948601;28;20403;-47
2023/11/12 18:17:28;;;;;;;;;;;;;;;;;;4962603;28;20364;-47
2023/11/12 18:19:55;;;;;;;;;;;;;;;;;;4962886;28;20013;-49
2023/11/12 18:22:25;;;;;;;;;;;;;;;;;;4958824;28;19915;-50
2023/11/12 18:24:51;;;;;;;;;;;;;;;;;;4957943;28;19914;-47
2023/11/12 18:27:17;;;;;;;;;;;;;;;;;;4962860;28;20384;-50
2023/11/12 18:29:43;;;;;;;;;;;;;;;;;;4950850;28;19933;-48
2023/11/12 18:32:10;;;;;;;;;;;;;;;;;;4950724;28;19919;-48
2023/11/12 18:34:36;;;;;;;;;;;;;;;;;;4949104;28;19981;-49
2023/11/12 18:37:02;;;;;;;;;;;;;;;;;;4950973;28;19922;-51
2023/11/12 18:39:28;;;;;;;;;;;;;;;;;;4947470;28;20204;-48
2023/11/12 18:41:53;;;;;;;;;;;;;;;;;;4964241;28;19969;-50
2023/11/12 18:44:19;;;;;;;;;;;;;;;;;;4947965;28;19934;-51
2023/11/12 18:46:46;;;;;;;;;;;;;;;;;;4932684;29;19980;-49
2023/11/12 18:49:12;;;;;;;;;;;;;;;;;;4954399;28;19973;-50
2023/11/12 18:51:38;;;;;;;;;;;;;;;;;;4960298;28;19914;-49
2023/11/12 18:54:06;;;;;;;;;;;;;;;;;;4959954;28;19918;-49
2023/11/12 18:56:32;;;;;;;;;;;;;;;;;;4955086;28;20340;-46
2023/11/12 18:58:58;;;;;;;;;;;;;;;;;;4951058;29;19910;-49
2023/11/12 19:01:24;;;;;;;;;;;;;;;;;;4949943;28;19930;-48
2023/11/12 19:03:50;;;;;;;;;;;;;;;;;;4947539;28;19952;-48
2023/11/12 19:06:16;;;;;;;;;;;;;;;;;;4947460;28;20009;-50
2023/11/12 19:08:42;;;;;;;;;;;;;;;;;;4946199;28;19929;-51
2023/11/12 19:11:10;;;;;;;;;;;;;;;;;;4947840;28;19969;-49
2023/11/12 19:13:35;;;;;;;;;;;;;;;;;;4948182;28;20399;-51
2023/11/12 19:16:01;;;;;;;;;;;;;;;;;;4948979;28;19961;-50
2023/11/12 19:18:30;;;;;;;;;;;;;;;;;;4947037;28;19915;-50
2023/11/12 19:20:56;;;;;;;;;;;;;;;;;;4950171;28;19977;-49
2023/11/12 19:23:24;;;;;;;;;;;;;;;;;;4946975;28;19958;-51
2023/11/12 19:25:50;;;;;;;;;;;;;;;;;;4930112;28;19968;-52
2023/11/12 19:28:16;;;;;;;;;;;;;;;;;;4948077;28;19945;-50
2023/11/12 19:30:42;;;;;;;;;;;;;;;;;;4946524;28;19929;-48
2023/11/12 19:33:09;;;;;;;;;;;;;;;;;;4947831;28;19915;-49
2023/11/12 19:35:35;;;;;;;;;;;;;;;;;;4963978;28;20019;-49
2023/11/12 19:38:02;;;;;;;;;;;;;;;;;;4950482;28;20251;-49
2023/11/12 19:40:28;;;;;;;;;;;;;;;;;;4959158;28;19914;-48
2023/11/12 19:42:54;;;;;;;;;;;;;;;;;;4955823;28;20311;-44
2023/11/12 19:45:20;;;;;;;;;;;;;;;;;;4948732;28;20013;-47
2023/11/12 19:47:50;;;;;;;;;;;;;;;;;;4944766;28;20059;-46
2023/11/12 19:50:17;;;;;;;;;;;;;;;;;;4948629;28;19918;-45
2023/11/12 19:52:43;;;;;;;;;;;;;;;;;;4947851;28;20319;-46
2023/11/12 19:55:09;;;;;;;;;;;;;;;;;;4950348;28;19918;-47
2023/11/12 19:57:34;;;;;;;;;;;;;;;;;;4943914;28;19962;-46
2023/11/12 20:00:00;;;;;;;;;;;;;;;;;;4946742;28;19961;-46
2023/11/12 20:02:27;;;;;;;;;;;;;;;;;;4948374;28;19925;-46
2023/11/12 20:04:53;;;;;;;;;;;;;;;;;;4950387;28;19969;-50
2023/11/12 20:07:19;;;;;;;;;;;;;;;;;;4947777;28;19915;-46
2023/11/12 20:09:45;;;;;;;;;;;;;;;;;;4948067;28;20429;-45
2023/11/12 20:12:12;;;;;;;;;;;;;;;;;;4932720;29;20339;-49
2023/11/12 20:14:38;;;;;;;;;;;;;;;;;;4949280;28;19942;-47
2023/11/12 20:17:08;;;;;;;;;;;;;;;;;;4948885;28;20239;-47
2023/11/12 20:19:35;;;;;;;;;;;;;;;;;;4949520;29;19948;-45
2023/11/12 20:22:03;;;;;;;;;;;;;;;;;;4948344;28;19974;-44
2023/11/12 20:24:36;;;;;;;;;;;;;;;;;;4949019;28;20351;-47
2023/11/12 20:27:03;;;;;;;;;;;;;;;;;;4948732;28;19921;-46
2023/11/12 20:29:29;;;;;;;;;;;;;;;;;;4931582;29;19919;-44
2023/11/12 20:31:55;;;;;;;;;;;;;;;;;;4949292;28;20315;-45
2023/11/12 20:34:21;;;;;;;;;;;;;;;;;;4948699;28;19914;-46
2023/11/12 20:36:48;;;;;;;;;;;;;;;;;;4949280;29;19910;-47
2023/11/12 20:39:17;;;;;;;;;;;;;;;;;;4949501;29;19911;-47
2023/11/12 20:41:43;;;;;;;;;;;;;;;;;;4947439;28;19917;-47
2023/11/12 20:44:09;;;;;;;;;;;;;;;;;;4947921;28;19938;-47
2023/11/12 20:46:35;;;;;;;;;;;;;;;;;;4947490;28;20307;-45
2023/11/12 20:49:01;;;;;;;;;;;;;;;;;;4931423;29;19991;-48
2023/11/12 20:51:27;;;;;;;;;;;;;;;;;;4948493;28;19915;-46
2023/11/12 20:53:53;;;;;;;;;;;;;;;;;;4946344;28;19915;-45
2023/11/12 20:56:20;;;;;;;;;;;;;;;;;;4948879;29;20390;-48
2023/11/12 20:58:46;;;;;;;;;;;;;;;;;;4947985;28;19922;-52
2023/11/12 21:01:12;;;;;;;;;;;;;;;;;;4946756;28;19919;-50
2023/11/12 21:03:38;;;;;;;;;;;;;;;;;;4947819;28;20020;-49
2023/11/12 21:06:04;;;;;;;;;;;;;;;;;;4947461;28;19970;-49
2023/11/12 21:08:29;;;;;;;;;;;;;;;;;;4946468;28;20121;-49
2023/11/12 21:10:55;;;;;;;;;;;;;;;;;;4948233;28;19926;-51
2023/11/12 21:13:21;;;;;;;;;;;;;;;;;;4950093;28;19918;-51
2023/11/12 21:15:51;;;;;;;;;;;;;;;;;;4967681;28;19910;-52
2023/11/12 21:18:17;;;;;;;;;;;;;;;;;;4968053;28;19917;-47
2023/11/12 21:20:44;;;;;;;;;;;;;;;;;;4933002;28;19914;-51
2023/11/12 21:23:11;;;;;;;;;;;;;;;;;;4944679;28;20001;-48
2023/11/12 21:25:39;;;;;;;;;;;;;;;;;;4946676;28;19922;-49
2023/11/12 21:28:05;;;;;;;;;;;;;;;;;;4928005;28;19915;-49
2023/11/12 21:30:31;;;;;;;;;;;;;;;;;;4930800;29;19921;-49
2023/11/12 21:32:57;;;;;;;;;;;;;;;;;;4947835;28;19914;-50
2023/11/12 21:35:24;;;;;;;;;;;;;;;;;;4945500;28;19954;-48
2023/11/12 21:37:50;;;;;;;;;;;;;;;;;;4930514;29;19914;-49
2023/11/12 21:40:16;;;;;;;;;;;;;;;;;;4944716;28;19921;-51
2023/11/12 21:42:42;;;;;;;;;;;;;;;;;;4944239;28;19922;-49
2023/11/12 21:45:10;;;;;;;;;;;;;;;;;;4944114;28;19914;-50
2023/11/12 21:47:36;;;;;;;;;;;;;;;;;;4945586;28;19970;-51
2023/11/12 21:50:02;;;;;;;;;;;;;;;;;;4947808;28;20009;-50
2023/11/12 21:52:28;;;;;;;;;;;;;;;;;;4947716;28;19915;-52
2023/11/12 21:54:55;;;;;;;;;;;;;;;;;;4948523;28;20453;-48
2023/11/12 21:57:20;;;;;;;;;;;;;;;;;;4952080;29;19910;-52
2023/11/12 21:59:46;;;;;;;;;;;;;;;;;;4951866;29;19914;-48
2023/11/12 22:02:12;;;;;;;;;;;;;;;;;;4949863;28;19941;-51
2023/11/12 22:04:38;;;;;;;;;;;;;;;;;;4952000;29;19921;-51
2023/11/12 22:07:04;;;;;;;;;;;;;;;;;;4950841;28;19915;-50
2023/11/12 22:09:30;;;;;;;;;;;;;;;;;;4934040;28;19918;-48
2023/11/12 22:11:56;;;;;;;;;;;;;;;;;;4950987;28;19937;-51
2023/11/12 22:14:23;;;;;;;;;;;;;;;;;;4954920;28;20210;-48
2023/11/12 22:16:51;;;;;;;;;;;;;;;;;;4958251;28;20478;-47
2023/11/12 22:19:17;;;;;;;;;;;;;;;;;;4951435;28;19915;-47
2023/11/12 22:21:43;;;;;;;;;;;;;;;;;;4950020;28;19915;-46
2023/11/12 22:24:09;;;;;;;;;;;;;;;;;;4951346;28;19922;-47
2023/11/12 22:26:36;;;;;;;;;;;;;;;;;;4949509;28;19934;-51
2023/11/12 22:29:02;;;;;;;;;;;;;;;;;;4950504;28;19921;-50
2023/11/12 22:31:29;;;;;;;;;;;;;;;;;;4952332;28;20001;-50
2023/11/12 22:33:55;;;;;;;;;;;;;;;;;;4933949;28;19941;-48
2023/11/12 22:36:21;;;;;;;;;;;;;;;;;;4951364;28;19915;-46
2023/11/12 22:38:47;;;;;;;;;;;;;;;;;;4932772;29;19914;-50
2023/11/12 22:41:13;;;;;;;;;;;;;;;;;;4931909;28;19978;-49